createdAt,value
2024-02-17T00:00:13.970Z,21.63
2024-02-17T00:05:15.845Z,22.27
2024-02-17T00:10:17.501Z,23.95
2024-02-17T00:15:19.066Z,17.83
2024-02-17T00:20:20.765Z,17.75
2024-02-17T00:25:22.361Z,20.08
2024-02-17T00:30:24.343Z,15.10
2024-02-17T00:35:25.912Z,22.60
2024-02-17T00:40:28.824Z,20.80
2024-02-17T00:45:31.092Z,20.25
2024-02-17T00:50:32.861Z,17.90
2024-02-17T00:55:35.241Z,21.73
2024-02-17T01:00:38.114Z,16.73
2024-02-17T01:05:40.570Z,21.45
2024-02-17T01:10:43.092Z,23.10
2024-02-17T01:15:45.180Z,22.60
2024-02-17T01:20:46.867Z,25.38
2024-02-17T01:25:48.404Z,22.48
2024-02-17T01:30:50.000Z,23.73
2024-02-17T01:35:51.558Z,23.30
2024-02-17T01:40:53.283Z,20.60
2024-02-17T01:45:55.141Z,21.42
2024-02-17T01:50:57.803Z,23.10
2024-02-17T01:55:59.715Z,18.83
2024-02-17T02:01:01.640Z,19.77
2024-02-17T02:06:03.995Z,21.17
2024-02-17T02:11:08.942Z,18.45
2024-02-17T02:16:10.680Z,15.73
2024-02-17T02:21:12.494Z,15.80
2024-02-17T02:26:14.335Z,14.50
2024-02-17T02:31:15.914Z,14.00
2024-02-17T02:36:18.083Z,16.77
2024-02-17T02:41:19.643Z,17.33
2024-02-17T02:46:21.198Z,22.23
2024-02-17T02:51:22.843Z,19.15
2024-02-17T02:56:25.073Z,18.52
2024-02-17T03:01:26.710Z,20.83
2024-02-17T03:06:30.681Z,16.58
2024-02-17T03:11:34.004Z,12.55
2024-02-17T03:16:35.661Z,16.67
2024-02-17T03:21:37.862Z,15.95
2024-02-17T03:26:39.576Z,21.42
2024-02-17T03:31:41.276Z,21.10
2024-02-17T03:36:43.065Z,17.92
2024-02-17T03:41:44.642Z,25.15
2024-02-17T03:46:46.330Z,16.13
2024-02-17T03:51:48.768Z,18.60
2024-02-17T03:56:50.635Z,19.08
2024-02-17T04:01:56.484Z,19.80
2024-02-17T04:06:58.288Z,19.77
2024-02-17T04:12:00.032Z,18.92
2024-02-17T04:17:01.612Z,22.42
2024-02-17T04:22:03.318Z,22.30
2024-02-17T04:27:05.293Z,23.33
2024-02-17T04:32:07.004Z,23.73
2024-02-17T04:37:08.614Z,24.35
2024-02-17T04:42:10.170Z,28.67
2024-02-17T04:47:11.799Z,28.95
2024-02-17T04:52:13.347Z,27.83
2024-02-17T04:57:15.223Z,29.30
2024-02-17T05:02:17.004Z,39.38
2024-02-17T05:07:18.582Z,35.25
2024-02-17T05:12:20.269Z,25.77
2024-02-17T05:17:21.973Z,28.13
2024-02-17T05:22:23.650Z,24.17
2024-02-17T05:27:25.219Z,16.58
2024-02-17T05:32:28.345Z,10.15
2024-02-17T05:37:29.950Z,10.43
2024-02-17T05:42:31.559Z,9.93
2024-02-17T05:47:33.197Z,8.68
2024-02-17T05:52:34.755Z,7.50
2024-02-17T05:57:36.361Z,11.82
2024-02-17T06:02:37.945Z,16.27
2024-02-17T06:07:39.657Z,9.82
2024-02-17T06:12:41.568Z,9.38
2024-02-17T06:17:44.510Z,8.48
2024-02-17T06:22:46.228Z,10.15
2024-02-17T06:27:47.875Z,10.70
2024-02-17T06:32:49.514Z,11.45
2024-02-17T06:37:51.128Z,13.02
2024-02-17T06:42:53.005Z,11.55
2024-02-17T06:47:54.587Z,12.38
2024-02-17T06:52:56.159Z,15.63
2024-02-17T06:57:57.750Z,19.73
2024-02-17T07:02:59.258Z,25.23
2024-02-17T07:08:01.505Z,26.77
2024-02-17T07:13:08.174Z,24.73
2024-02-17T07:18:09.950Z,18.48
2024-02-17T07:23:14.274Z,19.77
2024-02-17T07:28:15.918Z,18.55
2024-02-17T07:33:18.077Z,19.30
2024-02-17T07:38:19.744Z,20.60
2024-02-17T07:43:21.414Z,18.23
2024-02-17T07:48:23.214Z,21.15
2024-02-17T07:53:24.896Z,18.83
2024-02-17T07:58:26.410Z,20.90
2024-02-17T08:03:30.555Z,16.50
2024-02-17T08:08:32.553Z,15.23
2024-02-17T08:13:34.128Z,18.38
2024-02-17T08:18:36.041Z,19.95
2024-02-17T08:23:37.814Z,16.35
2024-02-17T08:28:39.748Z,19.23
2024-02-17T08:33:41.539Z,17.80
2024-02-17T08:38:43.198Z,17.90
2024-02-17T08:43:44.728Z,16.35
2024-02-17T08:48:46.418Z,17.25
2024-02-17T08:53:48.044Z,15.80
2024-02-17T08:58:49.650Z,16.27
2024-02-17T09:03:51.366Z,18.50
2024-02-17T09:08:53.043Z,16.88
2024-02-17T09:13:54.829Z,18.70
2024-02-17T09:18:56.499Z,16.50
2024-02-17T09:23:58.176Z,20.25
2024-02-17T09:28:59.680Z,17.58
2024-02-17T09:34:01.542Z,18.30
2024-02-17T09:39:03.967Z,20.00
2024-02-17T09:44:05.733Z,22.25
2024-02-17T09:49:08.704Z,18.55
2024-02-17T09:54:11.753Z,16.75
2024-02-17T09:59:14.556Z,21.60
2024-02-17T10:04:16.262Z,19.75
2024-02-17T10:09:22.326Z,18.92
2024-02-17T10:14:25.151Z,20.38
2024-02-17T10:19:27.012Z,20.83
2024-02-17T10:24:28.848Z,23.98
2024-02-17T10:29:30.622Z,20.90
2024-02-17T10:34:32.316Z,22.13
2024-02-17T10:39:35.008Z,21.42
2024-02-17T10:44:36.603Z,21.25
2024-02-17T10:49:54.951Z,20.80
2024-02-17T10:55:05.489Z,23.30
2024-02-17T11:00:09.498Z,21.65
2024-02-17T11:05:11.364Z,23.23
2024-02-17T11:10:14.455Z,27.50
2024-02-17T11:15:16.010Z,23.00
2024-02-17T11:20:18.954Z,18.40
2024-02-17T11:25:35.911Z,27.17
2024-02-17T11:30:48.718Z,27.33
2024-02-17T11:35:51.549Z,27.40
2024-02-17T11:40:58.600Z,29.63
2024-02-17T11:46:01.039Z,26.30
2024-02-17T11:51:27.064Z,30.23
2024-02-17T11:56:33.842Z,32.58
2024-02-17T12:01:35.474Z,36.00
2024-02-17T12:06:37.189Z,32.85
2024-02-17T12:11:40.551Z,35.25
2024-02-17T12:16:42.605Z,33.97
2024-02-17T12:21:45.879Z,40.20
2024-02-17T12:26:48.625Z,35.53
2024-02-17T12:31:52.961Z,33.85
2024-02-17T12:36:55.118Z,37.08
2024-02-17T12:42:06.882Z,30.98
2024-02-17T12:47:17.838Z,31.85
2024-02-17T12:52:20.634Z,33.33
2024-02-17T12:57:22.674Z,41.67
2024-02-17T13:02:24.308Z,40.53
2024-02-17T13:07:25.926Z,40.03
2024-02-17T13:12:27.499Z,37.70
2024-02-17T13:17:29.523Z,45.97
2024-02-17T13:22:31.277Z,45.05
2024-02-17T13:27:39.847Z,45.42
2024-02-17T13:32:45.450Z,47.10
2024-02-17T13:37:47.532Z,44.47
2024-02-17T13:42:49.182Z,48.67
2024-02-17T13:47:50.853Z,57.38
2024-02-17T13:52:53.786Z,53.38
2024-02-17T13:57:55.450Z,56.85
2024-02-17T14:02:57.764Z,57.78
2024-02-17T14:07:59.976Z,55.67
2024-02-17T14:13:01.978Z,60.30
2024-02-17T14:18:04.759Z,65.05
2024-02-17T14:23:06.580Z,56.58
2024-02-17T14:28:08.259Z,53.78
2024-02-17T14:33:11.461Z,55.70
2024-02-17T14:38:13.176Z,58.97
2024-02-17T14:43:15.130Z,65.32
2024-02-17T14:48:17.014Z,55.53
2024-02-17T14:53:18.764Z,48.80
2024-02-17T14:58:20.383Z,53.25
2024-02-17T15:03:22.950Z,46.42
2024-02-17T15:08:24.716Z,47.78
2024-02-17T15:13:27.658Z,48.88
2024-02-17T15:18:29.806Z,41.90
2024-02-17T15:23:32.796Z,51.17
2024-02-17T15:28:35.165Z,44.05
2024-02-17T15:33:36.932Z,43.88
2024-02-17T15:38:38.548Z,41.47
2024-02-17T15:43:40.154Z,44.03
2024-02-17T15:48:41.773Z,37.08
2024-02-17T15:53:43.415Z,35.25
2024-02-17T15:58:45.439Z,31.77
2024-02-17T16:03:47.290Z,30.85
2024-02-17T16:08:49.033Z,24.73
2024-02-17T16:13:50.619Z,24.55
2024-02-17T16:18:52.365Z,26.00
2024-02-17T16:23:55.765Z,22.45
2024-02-17T16:28:57.303Z,35.15
2024-02-17T16:34:02.067Z,39.13
2024-02-17T16:39:05.309Z,29.80
2024-02-17T16:44:07.316Z,41.83
2024-02-17T16:49:09.271Z,30.15
2024-02-17T16:54:10.908Z,20.60
2024-02-17T16:59:13.101Z,16.35
2024-02-17T17:04:14.884Z,22.90
2024-02-17T17:09:16.521Z,23.95
2024-02-17T17:14:18.154Z,30.77
2024-02-17T17:19:19.777Z,37.20
2024-02-17T17:24:21.636Z,20.45
2024-02-17T17:29:23.208Z,16.63
2024-02-17T17:34:24.948Z,14.65
2024-02-17T17:39:26.628Z,18.33
2024-02-17T17:44:28.166Z,15.88
2024-02-17T17:49:29.972Z,16.77
2024-02-17T17:54:31.714Z,19.13
2024-02-17T17:59:35.437Z,22.67
2024-02-17T18:04:37.341Z,21.50
2024-02-17T18:09:39.123Z,13.10
2024-02-17T18:14:41.766Z,21.88
2024-02-17T18:19:43.378Z,18.13
2024-02-17T18:24:45.559Z,18.15
2024-02-17T18:29:47.189Z,17.70
2024-02-17T18:34:49.160Z,17.02
2024-02-17T18:39:50.917Z,17.27
2024-02-17T18:44:52.562Z,18.85
2024-02-17T18:49:54.249Z,15.75
2024-02-17T18:54:56.440Z,18.23
2024-02-17T18:59:58.464Z,18.23
2024-02-17T19:05:00.166Z,17.33
2024-02-17T19:10:01.864Z,24.25
2024-02-17T19:15:04.244Z,15.10
2024-02-17T19:20:09.828Z,18.58
2024-02-17T19:25:11.592Z,15.05
2024-02-17T19:30:13.667Z,18.95
2024-02-17T19:35:15.405Z,24.15
2024-02-17T19:40:19.215Z,20.52
2024-02-17T19:45:21.010Z,23.90
2024-02-17T19:50:24.043Z,22.25
2024-02-17T19:55:25.757Z,19.23
2024-02-17T20:00:27.629Z,16.13
2024-02-17T20:05:29.868Z,19.98
2024-02-17T20:10:31.466Z,16.73
2024-02-17T20:15:33.054Z,25.45
2024-02-17T20:20:34.606Z,22.77
2024-02-17T20:25:36.165Z,25.85
2024-02-17T20:30:38.212Z,17.17
2024-02-17T20:35:39.952Z,21.73
2024-02-17T20:40:41.502Z,21.95
2024-02-17T20:45:44.684Z,31.17
2024-02-17T20:50:46.327Z,23.25
2024-02-17T20:55:48.226Z,28.77
2024-02-17T21:00:49.895Z,29.35
2024-02-17T21:05:51.818Z,30.08
2024-02-17T21:10:53.874Z,31.25
2024-02-17T21:15:55.602Z,31.92
2024-02-17T21:20:57.226Z,32.72
2024-02-17T21:25:58.838Z,38.13
2024-02-17T21:31:01.602Z,35.75
2024-02-17T21:36:03.301Z,36.20
2024-02-17T21:41:04.908Z,35.22
2024-02-17T21:46:07.324Z,33.63
2024-02-17T21:51:18.784Z,29.80
2024-02-17T21:56:20.568Z,31.88
2024-02-17T22:01:22.867Z,37.30
2024-02-17T22:06:24.609Z,33.50
2024-02-17T22:11:26.235Z,45.00
2024-02-17T22:16:27.894Z,35.08
2024-02-17T22:21:30.785Z,35.60
2024-02-17T22:26:32.974Z,31.40
2024-02-17T22:31:35.341Z,39.00
2024-02-17T22:36:37.701Z,37.13
2024-02-17T22:41:39.346Z,32.58
2024-02-17T22:46:40.892Z,33.33
2024-02-17T22:51:43.473Z,27.30
2024-02-17T22:56:45.059Z,29.55
2024-02-17T23:01:46.657Z,27.40
2024-02-17T23:06:48.928Z,34.60
2024-02-17T23:11:51.174Z,28.45
2024-02-17T23:16:53.587Z,24.00
2024-02-17T23:21:55.217Z,21.95
2024-02-17T23:26:56.836Z,19.48
2024-02-17T23:31:58.396Z,19.42
2024-02-17T23:37:00.174Z,21.27
2024-02-17T23:42:02.793Z,22.90
2024-02-17T23:47:04.556Z,25.10
2024-02-17T23:52:06.390Z,21.27
2024-02-17T23:57:08.156Z,17.77
